Time;durP1;ratioP1;P1;durP2;ratioP2;P2;SDS_P1;SDS_P2;PMS_P1;PMS_P2;Temp;Humidity;BMP_temperature;BMP_pressure;BME280_temperature;BME280_humidity;BME280_pressure;Samples;Min_cycle;Max_cycle;Signal;HPM_P1;HPM_P2
2023/02/26 00:00:21;;;;;;;;;;;;;;;-144.99;94.11;52600.97;5023872;28;20003;-74
2023/02/26 00:02:49;;;;;;;;;;;;;;;-144.99;93.96;52580.59;5025816;28;19941;-72
2023/02/26 00:05:16;;;;;;;;;;;;;;;-144.99;93.84;52623.38;5019769;28;20431;-73
2023/02/26 00:07:43;;;;;;;;;;;;;;;-144.99;91.32;52607.09;5022504;28;19948;-74
2023/02/26 00:10:11;;;;;;;;;;;;;;;-144.99;91.04;52590.78;5028770;28;19999;-71
2023/02/26 00:12:38;;;;;;;;;;;;;;;-144.99;90.91;52631.53;5030579;28;20228;-73
2023/02/26 00:15:05;;;;;;;;;;;;;;;-144.99;91.07;52594.84;5032025;28;19970;-72
2023/02/26 00:17:39;;;;;;;;;;;;;;;-144.99;91.40;52586.69;5029965;28;19946;-73
2023/02/26 00:20:09;;;;;;;;;;;;;;;-144.99;91.27;52609.13;5028423;28;19994;-72
2023/02/26 00:22:36;;;;;;;;;;;;;;;-144.99;93.10;52590.78;5021632;28;19959;-68
2023/02/26 00:25:02;;;;;;;;;;;;;;;-144.99;93.26;52639.69;5026622;28;19963;-69
2023/02/26 00:27:29;;;;;;;;;;;;;;;-144.99;93.16;52586.69;5025278;28;20023;-68
2023/02/26 00:29:56;;;;;;;;;;;;;;;-144.99;92.70;52578.53;5026657;28;19958;-68
2023/02/26 00:32:22;;;;;;;;;;;;;;;-144.99;93.00;52590.78;5025126;28;20014;-67
2023/02/26 00:34:49;;;;;;;;;;;;;;;-144.99;92.41;52598.94;5025720;28;19971;-67
2023/02/26 00:37:24;;;;;;;;;;;;;;;-144.99;93.50;52623.38;5027415;28;19992;-66
2023/02/26 00:39:54;;;;;;;;;;;;;;;-144.99;94.83;52607.09;5027158;28;19979;-68
2023/02/26 00:42:21;;;;;;;;;;;;;;;-144.99;96.04;52594.84;5025105;28;20487;-67
2023/02/26 00:44:48;;;;;;;;;;;;;;;-144.99;96.23;52611.16;5026646;28;20401;-67
2023/02/26 00:47:21;;;;;;;;;;;;;;;-144.99;96.01;52598.94;5029552;28;19944;-66
2023/02/26 00:49:53;;;;;;;;;;;;;;;-144.99;95.88;52556.13;5036230;28;19925;-67
2023/02/26 00:52:28;;;;;;;;;;;;;;;-144.99;95.89;52631.53;5028359;28;19956;-66
2023/02/26 00:54:55;;;;;;;;;;;;;;;-144.99;96.13;52594.84;5027327;28;20428;-67
2023/02/26 00:57:22;;;;;;;;;;;;;;;-144.99;96.49;52619.31;5033797;28;19939;-65
2023/02/26 00:59:48;;;;;;;;;;;;;;;-144.99;96.91;52598.94;5027138;28;19983;-69
2023/02/26 01:02:15;;;;;;;;;;;;;;;-144.99;97.36;52586.69;5027992;28;19995;-67
2023/02/26 01:04:42;;;;;;;;;;;;;;;-144.99;97.35;52586.69;5032286;28;19987;-67
2023/02/26 01:07:09;;;;;;;;;;;;;;;-144.99;95.84;52639.69;5036536;28;20484;-64
2023/02/26 01:09:38;;;;;;;;;;;;;;;-144.99;94.09;52574.47;5036383;28;19963;-67
2023/02/26 01:12:07;;;;;;;;;;;;;;;-144.99;94.31;52586.69;5028126;28;20416;-69
2023/02/26 01:14:34;;;;;;;;;;;;;;;-144.99;94.07;52594.84;5028492;28;19961;-67
2023/02/26 01:17:03;;;;;;;;;;;;;;;-144.99;93.77;52578.53;5035539;28;19971;-68
2023/02/26 01:19:33;;;;;;;;;;;;;;;-144.99;95.08;52558.16;5038907;28;20407;-68
2023/02/26 01:22:02;;;;;;;;;;;;;;;-144.99;95.31;52586.69;5040375;28;20033;-68
2023/02/26 01:24:30;;;;;;;;;;;;;;;-144.99;96.45;52594.84;5035983;28;19955;-67
2023/02/26 01:26:58;;;;;;;;;;;;;;;-144.99;96.77;52570.38;5035756;28;20001;-68
2023/02/26 01:29:25;;;;;;;;;;;;;;;-144.99;96.03;52562.25;5033451;28;19978;-68
2023/02/26 01:31:56;;;;;;;;;;;;;;;-144.99;96.42;52594.84;5031391;28;19994;-67
2023/02/26 01:34:27;;;;;;;;;;;;;;;-144.99;96.56;52558.16;5029625;28;20007;-67
2023/02/26 01:36:56;;;;;;;;;;;;;;;-144.99;96.16;52550.00;5034589;28;20046;-67
2023/02/26 01:39:29;;;;;;;;;;;;;;;-144.99;95.88;52584.66;5035453;28;19935;-67
2023/02/26 01:41:57;;;;;;;;;;;;;;;-144.99;95.35;52578.53;5036829;28;19988;-66
2023/02/26 01:44:27;;;;;;;;;;;;;;;-144.99;94.68;52570.38;5027691;28;19956;-67
2023/02/26 01:46:58;;;;;;;;;;;;;;;-144.99;94.24;52590.78;5036745;28;19955;-67
2023/02/26 01:49:25;;;;;;;;;;;;;;;-144.99;94.06;52598.94;5038148;28;19943;-67
2023/02/26 01:51:52;;;;;;;;;;;;;;;-144.99;93.91;52558.16;5040275;28;20383;-67
2023/02/26 01:54:20;;;;;;;;;;;;;;;-144.99;94.02;52643.78;5038463;28;19982;-68
2023/02/26 01:56:49;;;;;;;;;;;;;;;-144.99;93.94;52598.94;5033397;28;19958;-68
2023/02/26 01:59:23;;;;;;;;;;;;;;;-144.99;93.91;52629.50;5030587;28;20440;-68
2023/02/26 02:01:51;;;;;;;;;;;;;;;-144.99;93.60;52550.00;5030400;28;19970;-68
2023/02/26 02:04:18;;;;;;;;;;;;;;;-144.99;93.74;52594.84;5027885;28;20447;-67
2023/02/26 02:06:45;;;;;;;;;;;;;;;-144.99;93.74;52566.31;5029858;28;20286;-68
2023/02/26 02:09:12;;;;;;;;;;;;;;;-144.99;94.09;52609.13;5028231;28;20029;-67
2023/02/26 02:11:45;;;;;;;;;;;;;;;-144.99;94.17;52578.53;5036819;28;19979;-66
2023/02/26 02:14:15;;;;;;;;;;;;;;;-144.99;94.24;52566.31;5032777;28;19961;-66
2023/02/26 02:16:45;;;;;;;;;;;;;;;-144.99;94.54;52578.53;5035531;28;19955;-66
2023/02/26 02:19:24;;;;;;;;;;;;;;;-144.99;94.10;52598.94;5032544;28;19943;-68
2023/02/26 02:22:08;;;;;;;;;;;;;;;-144.99;94.28;52586.69;5031231;28;19997;-67
2023/02/26 02:24:45;;;;;;;;;;;;;;;-144.99;94.37;52615.25;5033076;28;20377;-67
2023/02/26 02:27:18;;;;;;;;;;;;;;;-144.99;94.38;52598.94;5032773;28;19978;-68
2023/02/26 02:29:55;;;;;;;;;;;;;;;-144.99;94.36;52545.94;5033465;28;19985;-67
2023/02/26 02:32:25;;;;;;;;;;;;;;;-144.99;94.49;52572.44;5022247;28;20504;-68
2023/02/26 02:34:55;;;;;;;;;;;;;;;-144.99;93.99;52603.00;5026708;28;20022;-67
2023/02/26 02:37:25;;;;;;;;;;;;;;;-144.99;94.18;52590.78;5024956;28;19958;-65
2023/02/26 02:39:53;;;;;;;;;;;;;;;-144.99;94.27;52611.16;5029468;28;19955;-67
2023/02/26 02:42:23;;;;;;;;;;;;;;;-144.99;94.01;52615.25;5028124;28;20062;-64
2023/02/26 02:44:53;;;;;;;;;;;;;;;-144.99;94.09;52584.66;5027473;28;20054;-65
2023/02/26 02:47:20;;;;;;;;;;;;;;;-144.99;94.31;52586.69;5022745;28;19939;-65
2023/02/26 02:49:51;;;;;;;;;;;;;;;-144.99;94.41;52590.78;5029522;28;19940;-65
2023/02/26 02:52:20;;;;;;;;;;;;;;;-144.99;94.57;52594.84;5024360;28;20540;-65
2023/02/26 02:54:49;;;;;;;;;;;;;;;-144.99;93.33;52603.00;5023680;28;20367;-65
2023/02/26 02:57:20;;;;;;;;;;;;;;;-144.99;93.00;52613.19;5024716;28;19984;-64
2023/02/26 02:59:48;;;;;;;;;;;;;;;-144.99;92.66;52590.78;5027273;28;20415;-64
2023/02/26 03:02:18;;;;;;;;;;;;;;;-144.99;92.46;52586.69;5027184;28;19987;-64
2023/02/26 03:04:45;;;;;;;;;;;;;;;-144.99;92.17;52570.38;5029007;28;19971;-64
2023/02/26 03:07:13;;;;;;;;;;;;;;;-144.99;91.94;52539.81;5026700;28;20029;-64
2023/02/26 03:09:39;;;;;;;;;;;;;;;-144.99;91.97;52576.50;5026683;28;19987;-65
2023/02/26 03:12:06;;;;;;;;;;;;;;;-144.99;92.10;52566.31;5029199;28;19983;-66
2023/02/26 03:14:33;;;;;;;;;;;;;;;-144.99;92.39;52547.97;5028800;28;19964;-68
2023/02/26 03:17:08;;;;;;;;;;;;;;;-144.99;92.60;52586.69;5026729;28;20111;-67
2023/02/26 03:19:38;;;;;;;;;;;;;;;-144.99;92.77;52582.63;5026347;28;19962;-67
2023/02/26 03:22:09;;;;;;;;;;;;;;;-144.99;92.75;52594.84;5029558;28;19970;-69
2023/02/26 03:24:40;;;;;;;;;;;;;;;-144.99;92.93;52592.81;5029239;28;19959;-65
2023/02/26 03:27:10;;;;;;;;;;;;;;;-144.99;93.29;52594.84;5027313;28;20005;-68
2023/02/26 03:29:40;;;;;;;;;;;;;;;-144.99;92.88;52574.47;5044902;28;19936;-68
2023/02/26 03:32:08;;;;;;;;;;;;;;;-144.99;92.75;52598.94;5045632;28;19940;-68
2023/02/26 03:34:39;;;;;;;;;;;;;;;-144.99;92.69;52586.69;5034104;28;20415;-65
2023/02/26 03:37:08;;;;;;;;;;;;;;;-144.99;92.75;52578.53;5024020;28;20027;-67
2023/02/26 03:39:39;;;;;;;;;;;;;;;-144.99;92.79;52600.97;5024470;28;19985;-66
2023/02/26 03:42:09;;;;;;;;;;;;;;;-144.99;92.68;52578.53;5026139;28;19947;-65
2023/02/26 03:44:37;;;;;;;;;;;;;;;-144.99;92.71;52594.84;5025801;28;20055;-67
2023/02/26 03:47:06;;;;;;;;;;;;;;;-144.99;92.97;52586.69;4676008;28;10000083;-67
2023/02/26 03:49:35;;;;;;;;;;;;;;;-144.99;92.89;52568.34;5029303;28;20395;-67
2023/02/26 03:52:03;;;;;;;;;;;;;;;-144.99;93.45;52623.38;5032090;28;20003;-66
2023/02/26 03:54:32;;;;;;;;;;;;;;;-144.99;93.50;52582.63;5037408;28;19989;-70
2023/02/26 03:57:00;;;;;;;;;;;;;;;-144.99;93.57;52578.53;5038482;28;19972;-69
2023/02/26 03:59:27;;;;;;;;;;;;;;;-144.99;93.63;52592.81;5034866;28;19960;-66
2023/02/26 04:01:56;;;;;;;;;;;;;;;-144.99;93.91;52562.25;5046814;22;20493;-75
2023/02/26 04:04:25;;;;;;;;;;;;;;;-144.99;93.45;52574.47;5024108;28;20888;-73
2023/02/26 04:06:54;;;;;;;;;;;;;;;-144.99;93.75;52582.63;5034002;28;19990;-74
2023/02/26 04:09:21;;;;;;;;;;;;;;;-144.99;93.57;52550.00;5041270;28;20028;-73
2023/02/26 04:11:49;;;;;;;;;;;;;;;-144.99;93.57;52590.78;5025984;28;20002;-74
2023/02/26 04:14:17;;;;;;;;;;;;;;;-144.99;93.54;52615.25;5028829;28;19961;-74
2023/02/26 04:16:44;;;;;;;;;;;;;;;-144.99;93.49;52578.53;5022846;28;20083;-74
2023/02/26 04:19:10;;;;;;;;;;;;;;;-144.99;93.68;52578.53;5033459;28;19968;-74
2023/02/26 04:21:37;;;;;;;;;;;;;;;-144.99;93.45;52598.94;5021778;28;19992;-78
2023/02/26 04:24:03;;;;;;;;;;;;;;;-144.99;93.45;52574.47;5028746;28;20587;-75
2023/02/26 04:26:30;;;;;;;;;;;;;;;-144.99;93.45;52619.31;5025753;28;20029;-78
2023/02/26 04:28:56;;;;;;;;;;;;;;;-144.99;93.43;52570.38;5029421;28;20375;-76
2023/02/26 04:31:24;;;;;;;;;;;;;;;-144.99;93.33;52586.69;5022763;28;19936;-74
2023/02/26 04:33:51;;;;;;;;;;;;;;;-144.99;93.10;52598.94;5029513;28;20327;-76
2023/02/26 04:36:17;;;;;;;;;;;;;;;-144.99;92.68;52570.38;5028391;28;20183;-74
2023/02/26 04:38:44;;;;;;;;;;;;;;;-144.99;92.87;52566.31;5019047;28;20456;-73
2023/02/26 04:41:10;;;;;;;;;;;;;;;-144.99;92.70;52592.81;5026115;28;20395;-73
2023/02/26 04:43:37;;;;;;;;;;;;;;;-144.99;92.77;52576.50;5023545;28;20446;-74
2023/02/26 04:46:04;;;;;;;;;;;;;;;-144.99;92.88;52564.28;5026064;28;19947;-76
2023/02/26 04:48:31;;;;;;;;;;;;;;;-144.99;93.12;52582.63;5027955;28;19968;-75
2023/02/26 04:50:58;;;;;;;;;;;;;;;-144.99;93.87;52594.84;5029213;28;20016;-73
2023/02/26 04:53:24;;;;;;;;;;;;;;;-144.99;94.16;52617.28;5024903;28;20013;-73
2023/02/26 04:55:51;;;;;;;;;;;;;;;-144.99;93.94;52574.47;5031157;28;20376;-71
2023/02/26 04:58:17;;;;;;;;;;;;;;;-144.99;93.97;52607.09;5022443;28;20343;-73
2023/02/26 05:00:47;;;;;;;;;;;;;;;-144.99;94.17;52574.47;5029008;28;19983;-79
2023/02/26 05:03:14;;;;;;;;;;;;;;;-144.99;94.25;52631.53;5028688;28;19974;-74
2023/02/26 05:05:42;;;;;;;;;;;;;;;-144.99;93.89;52598.94;5028864;28;20413;-76
2023/02/26 05:08:08;;;;;;;;;;;;;;;-144.99;93.59;52611.16;5026716;28;20071;-76
2023/02/26 05:10:35;;;;;;;;;;;;;;;-144.99;93.55;52611.16;5033448;28;19952;-73
2023/02/26 05:13:01;;;;;;;;;;;;;;;-144.99;93.13;52596.88;5029416;28;19988;-75
2023/02/26 05:15:28;;;;;;;;;;;;;;;-144.99;93.51;52566.31;5030781;28;20394;-85
2023/02/26 05:17:54;;;;;;;;;;;;;;;-144.99;93.46;52598.94;5052009;28;19955;-82
2023/02/26 05:20:21;;;;;;;;;;;;;;;-144.99;93.31;52594.84;5038182;28;20003;-74
2023/02/26 05:22:49;;;;;;;;;;;;;;;-144.99;93.47;52584.66;5037382;28;19959;-76
2023/02/26 05:25:15;;;;;;;;;;;;;;;-144.99;92.75;52619.31;5038720;28;20082;-73
2023/02/26 05:27:42;;;;;;;;;;;;;;;-144.99;92.50;52574.47;5032549;28;20030;-76
2023/02/26 05:30:10;;;;;;;;;;;;;;;-144.99;92.23;52627.47;5037207;28;19964;-77
2023/02/26 05:32:37;;;;;;;;;;;;;;;-144.99;92.13;52541.84;5036269;28;20287;-75
2023/02/26 05:35:04;;;;;;;;;;;;;;;-144.99;91.94;52594.84;5033532;28;19987;-77
2023/02/26 05:37:30;;;;;;;;;;;;;;;-144.99;92.16;52578.53;5026741;28;19967;-73
2023/02/26 05:39:58;;;;;;;;;;;;;;;-144.99;92.46;52570.38;5031751;28;20009;-74
2023/02/26 05:42:24;;;;;;;;;;;;;;;-144.99;92.28;52594.84;5035866;28;20401;-72
2023/02/26 05:44:51;;;;;;;;;;;;;;;-144.99;92.02;52554.09;5028619;28;20325;-73
2023/02/26 05:47:17;;;;;;;;;;;;;;;-144.99;91.80;52603.00;5034973;28;19968;-72
2023/02/26 05:49:44;;;;;;;;;;;;;;;-144.99;91.69;52603.00;5029486;28;19936;-73
2023/02/26 05:52:10;;;;;;;;;;;;;;;-144.99;91.90;52590.78;5048321;28;19992;-78
2023/02/26 05:54:37;;;;;;;;;;;;;;;-144.99;91.77;52619.31;5036856;28;19959;-74
2023/02/26 05:57:05;;;;;;;;;;;;;;;-144.99;91.68;52568.34;5025980;28;19956;-72
2023/02/26 05:59:31;;;;;;;;;;;;;;;-144.99;91.11;52566.31;5033229;28;20438;-73
2023/02/26 06:01:58;;;;;;;;;;;;;;;-144.99;90.93;52578.53;5033166;28;19978;-72
2023/02/26 06:04:24;;;;;;;;;;;;;;;-144.99;90.87;52627.47;5024516;28;19946;-73
2023/02/26 06:06:51;;;;;;;;;;;;;;;-144.99;90.85;52594.84;5029905;28;20418;-74
2023/02/26 06:09:17;;;;;;;;;;;;;;;-144.99;91.00;52550.00;5030961;28;19979;-75
2023/02/26 06:11:44;;;;;;;;;;;;;;;-144.99;90.96;52554.09;5031849;28;19996;-74
2023/02/26 06:14:12;;;;;;;;;;;;;;;-144.99;91.05;52603.00;5027895;28;20052;-73
2023/02/26 06:16:38;;;;;;;;;;;;;;;-144.99;91.15;52582.63;5026014;28;20001;-74
2023/02/26 06:19:05;;;;;;;;;;;;;;;-144.99;90.97;52562.25;5031154;28;20396;-73
2023/02/26 06:21:31;;;;;;;;;;;;;;;-144.99;90.83;52588.75;5031254;28;19932;-77
2023/02/26 06:23:58;;;;;;;;;;;;;;;-144.99;90.92;52562.25;5026443;28;20279;-74
2023/02/26 06:26:24;;;;;;;;;;;;;;;-144.99;91.09;52600.97;5042697;28;19939;-82
2023/02/26 06:28:51;;;;;;;;;;;;;;;-144.99;90.97;52588.75;5047244;28;19959;-76
2023/02/26 06:31:18;;;;;;;;;;;;;;;-144.99;90.86;52539.81;5037232;28;19933;-75
2023/02/26 06:33:45;;;;;;;;;;;;;;;-144.99;90.66;52558.16;5038604;28;20386;-73
2023/02/26 06:36:12;;;;;;;;;;;;;;;-144.99;90.37;52513.31;5033189;28;20367;-75
2023/02/26 06:38:38;;;;;;;;;;;;;;;-144.99;90.43;52570.38;5030612;28;19961;-75
2023/02/26 06:41:04;;;;;;;;;;;;;;;-144.99;90.67;52580.59;5031598;28;19925;-74
2023/02/26 06:43:31;;;;;;;;;;;;;;;-144.99;90.37;52558.16;5031030;28;20010;-76
2023/02/26 06:45:58;;;;;;;;;;;;;;;-144.99;89.55;52578.53;5025507;28;19997;-73
2023/02/26 06:48:26;;;;;;;;;;;;;;;-144.99;89.24;52578.53;5025860;28;20005;-75
2023/02/26 06:50:53;;;;;;;;;;;;;;;-144.99;88.90;52584.66;5031803;28;20012;-74
2023/02/26 06:53:19;;;;;;;;;;;;;;;-144.99;88.67;52578.53;5035885;28;19973;-75
2023/02/26 06:55:46;;;;;;;;;;;;;;;-144.99;88.58;52539.81;5038220;28;19945;-74
2023/02/26 06:58:13;;;;;;;;;;;;;;;-144.99;88.59;52558.16;5038285;28;19992;-74
2023/02/26 07:00:40;;;;;;;;;;;;;;;-144.99;88.43;52582.63;5045009;28;19955;-74
2023/02/26 07:03:07;;;;;;;;;;;;;;;-144.99;88.20;52574.47;5049215;28;19940;-75
2023/02/26 07:05:34;;;;;;;;;;;;;;;-144.99;88.42;52523.50;5046575;28;19959;-72
2023/02/26 07:08:01;;;;;;;;;;;;;;;-144.99;87.00;52586.69;5037009;28;19949;-75
2023/02/26 07:10:28;;;;;;;;;;;;;;;-144.99;86.44;52550.00;5037308;28;19968;-74
2023/02/26 07:12:54;;;;;;;;;;;;;;;-144.99;88.28;52578.53;5043887;28;19975;-76
2023/02/26 07:15:21;;;;;;;;;;;;;;;-144.99;87.86;52537.78;5039353;28;20451;-75
2023/02/26 07:17:47;;;;;;;;;;;;;;;-144.99;88.02;52554.09;5041050;28;19960;-77
2023/02/26 07:20:13;;;;;;;;;;;;;;;-144.99;87.95;52550.00;5041273;28;19959;-76
2023/02/26 07:22:41;;;;;;;;;;;;;;;-144.99;88.05;52550.00;5040135;28;19925;-75
2023/02/26 07:25:08;;;;;;;;;;;;;;;-144.99;87.45;52497.00;5035129;28;19936;-77
2023/02/26 07:27:34;;;;;;;;;;;;;;;-144.99;85.68;52554.09;5036956;28;19952;-77
2023/02/26 07:30:01;;;;;;;;;;;;;;;-144.99;85.01;52545.94;5037416;28;19950;-73
2023/02/26 07:32:28;;;;;;;;;;;;;;;-144.99;84.28;52570.38;5034066;28;19929;-75
2023/02/26 07:34:54;;;;;;;;;;;;;;;-144.99;83.76;52523.50;5038157;28;19956;-73
2023/02/26 07:37:21;;;;;;;;;;;;;;;-144.99;83.18;52541.84;5035422;28;19929;-76
2023/02/26 07:39:49;;;;;;;;;;;;;;;-144.99;82.44;52558.16;5046519;28;19913;-77
2023/02/26 07:42:15;;;;;;;;;;;;;;;-144.99;82.18;52533.69;5030945;28;20027;-73
2023/02/26 07:44:42;;;;;;;;;;;;;;;-144.99;81.53;52550.00;5030084;28;20426;-76
2023/02/26 07:47:08;;;;;;;;;;;;;;;-144.99;81.12;52533.69;5030549;28;19972;-77
2023/02/26 07:49:35;;;;;;;;;;;;;;;-144.99;80.71;52517.41;5028853;28;19961;-79
2023/02/26 07:52:01;;;;;;;;;;;;;;;-144.99;80.55;52513.31;5028573;28;20192;-75
2023/02/26 07:54:28;;;;;;;;;;;;;;;-144.99;80.50;52529.63;5031103;28;19963;-73
2023/02/26 07:56:56;;;;;;;;;;;;;;;-144.99;80.33;52554.09;5024466;28;19960;-74
2023/02/26 07:59:22;;;;;;;;;;;;;;;-144.99;79.97;52529.63;5030828;28;20447;-75
2023/02/26 08:01:49;;;;;;;;;;;;;;;-144.99;79.25;52525.56;5029983;28;20395;-76
2023/02/26 08:04:15;;;;;;;;;;;;;;;-144.99;78.80;52521.47;5026077;28;20037;-75
2023/02/26 08:06:42;;;;;;;;;;;;;;;-144.99;78.42;52521.47;5020851;28;19979;-77
2023/02/26 08:09:08;;;;;;;;;;;;;;;-144.99;78.42;52545.94;5029374;28;19999;-76
2023/02/26 08:11:38;;;;;;;;;;;;;;;-144.99;78.82;52497.00;5030880;28;19961;-75
2023/02/26 08:14:06;;;;;;;;;;;;;;;-144.99;78.06;52525.56;5024023;28;19969;-76
2023/02/26 08:16:33;;;;;;;;;;;;;;;-144.99;77.81;52513.31;5046747;28;20014;-79
2023/02/26 08:18:59;;;;;;;;;;;;;;;-144.99;77.28;52521.47;5031562;28;20396;-77
2023/02/26 08:21:26;;;;;;;;;;;;;;;-144.99;79.23;52570.38;5026610;28;19929;-77
2023/02/26 08:23:53;;;;;;;;;;;;;;;-144.99;79.35;52507.19;5027145;28;21627;-77
2023/02/26 08:26:19;;;;;;;;;;;;;;;-144.99;78.08;52492.94;5023859;28;19980;-75
2023/02/26 08:28:47;;;;;;;;;;;;;;;-144.99;78.25;52488.84;5026398;28;19965;-80
2023/02/26 08:31:15;;;;;;;;;;;;;;;-144.99;78.71;52492.94;5024895;28;20035;-76
2023/02/26 08:33:41;;;;;;;;;;;;;;;-144.99;77.69;52525.56;5025964;28;19955;-76
2023/02/26 08:36:08;;;;;;;;;;;;;;;-144.99;77.19;52517.41;5029016;28;19968;-77
2023/02/26 08:38:34;;;;;;;;;;;;;;;-144.99;76.93;52513.31;5037511;28;19925;-76
2023/02/26 08:41:01;;;;;;;;;;;;;;;-144.99;78.57;52478.66;5039897;28;19975;-77
2023/02/26 08:43:28;;;;;;;;;;;;;;;-144.99;75.42;52476.63;5039843;28;19944;-80
2023/02/26 08:45:55;;;;;;;;;;;;;;;-144.99;74.20;52480.72;5023238;28;19933;-79
2023/02/26 08:48:24;;;;;;;;;;;;;;;-144.99;74.67;52484.78;5027108;28;19929;-78
2023/02/26 08:50:50;;;;;;;;;;;;;;;-144.99;74.64;52509.25;5025786;28;19925;-78
2023/02/26 08:53:17;;;;;;;;;;;;;;;-144.99;74.58;52497.00;5024648;28;20036;-77
2023/02/26 08:55:47;;;;;;;;;;;;;;;-144.99;74.87;52492.94;5040434;28;19971;-85
2023/02/26 08:58:13;;;;;;;;;;;;;;;-144.99;73.43;52521.47;5042454;28;20027;-78
2023/02/26 09:00:40;;;;;;;;;;;;;;;-144.99;73.70;52497.00;5027190;28;20026;-81
2023/02/26 09:03:06;;;;;;;;;;;;;;;-144.99;74.00;52472.56;5027288;28;19964;-77
2023/02/26 09:05:34;;;;;;;;;;;;;;;-144.99;73.64;52497.00;5025519;28;19956;-79
2023/02/26 09:08:00;;;;;;;;;;;;;;;-144.99;71.92;52521.47;5017728;28;20154;-79
2023/02/26 09:10:27;;;;;;;;;;;;;;;-144.99;71.79;52497.00;5028085;28;20355;-78
2023/02/26 09:12:53;;;;;;;;;;;;;;;-144.99;71.55;52497.00;5028093;28;20060;-78
2023/02/26 09:15:20;;;;;;;;;;;;;;;-144.99;71.62;52476.63;5027617;28;19961;-78
2023/02/26 09:17:47;;;;;;;;;;;;;;;-144.99;71.32;52444.03;5028516;28;19959;-78
2023/02/26 09:20:14;;;;;;;;;;;;;;;-144.99;71.10;52452.16;5028770;28;19956;-77
2023/02/26 09:22:42;;;;;;;;;;;;;;;-144.99;70.77;52437.91;5029123;28;19965;-78
2023/02/26 09:25:09;;;;;;;;;;;;;;;-144.99;70.00;52468.47;5035028;28;19983;-78
2023/02/26 09:27:35;;;;;;;;;;;;;;;-144.99;69.93;52468.47;5024597;28;19939;-78
2023/02/26 09:30:01;;;;;;;;;;;;;;;-144.99;69.71;52444.03;5028532;28;19947;-78
2023/02/26 09:32:28;;;;;;;;;;;;;;;-144.99;69.65;52482.75;5021192;28;19971;-78
2023/02/26 09:34:54;;;;;;;;;;;;;;;-144.99;68.57;52407.31;5029352;28;20054;-79
2023/02/26 09:37:21;;;;;;;;;;;;;;;-144.99;67.96;52407.31;5023474;28;20069;-78
2023/02/26 09:39:49;;;;;;;;;;;;;;;-144.99;68.02;52395.09;5028153;28;20036;-77
2023/02/26 09:42:18;;;;;;;;;;;;;;;-144.99;67.32;52388.97;5026535;28;20008;-77
2023/02/26 09:44:47;;;;;;;;;;;;;;;-144.99;67.32;52435.88;5028213;28;20024;-80
2023/02/26 09:47:16;;;;;;;;;;;;;;;-144.99;67.12;52439.94;5020395;28;19937;-78
2023/02/26 09:49:54;;;;;;;;;;;;;;;-144.99;66.50;52419.56;5028555;28;19967;-77
2023/02/26 09:52:24;;;;;;;;;;;;;;;-144.99;65.73;52435.88;5025093;28;19979;-81
2023/02/26 09:54:53;;;;;;;;;;;;;;;-144.99;64.94;52395.09;5023424;28;20060;-77
2023/02/26 09:57:27;;;;;;;;;;;;;;;-144.99;64.07;52378.78;5024376;28;20326;-78
2023/02/26 09:59:54;;;;;;;;;;;;;;;-144.99;62.79;52417.53;5023625;28;19998;-78
2023/02/26 10:02:24;;;;;;;;;;;;;;;-144.99;61.87;52366.56;5024133;28;19966;-79
2023/02/26 10:04:54;;;;;;;;;;;;;;;-144.99;61.22;52378.78;5026020;28;20410;-78
2023/02/26 10:07:27;;;;;;;;;;;;;;;-144.99;60.86;52364.53;5030209;28;19940;-78
2023/02/26 10:10:02;;;;;;;;;;;;;;;-144.99;59.88;52338.03;5033766;28;19990;-79
2023/02/26 10:12:31;;;;;;;;;;;;;;;-144.99;59.40;52358.41;5028247;28;19991;-85
2023/02/26 10:15:00;;;;;;;;;;;;;;;-144.99;59.15;52336.00;5054443;28;19964;-82
2023/02/26 10:17:31;;;;;;;;;;;;;;;-144.99;58.88;52291.16;5038130;28;19977;-79
2023/02/26 10:20:00;;;;;;;;;;;;;;;-144.99;58.18;52319.69;5032079;28;20054;-77
2023/02/26 10:22:28;;;;;;;;;;;;;;;-144.99;58.29;52358.41;5024120;28;20153;-77
2023/02/26 10:24:59;;;;;;;;;;;;;;;-144.99;59.07;52403.25;5026785;28;20566;-80
2023/02/26 10:27:34;;;;;;;;;;;;;;;-144.99;60.50;52399.19;5026895;28;19984;-81
2023/02/26 10:30:03;;;;;;;;;;;;;;;-144.99;61.47;52407.31;5018359;28;20344;-80
2023/02/26 10:32:33;;;;;;;;;;;;;;;-144.99;62.22;52476.63;5048313;23;19963;-71
2023/02/26 10:35:01;;;;;;;;;;;;;;;-144.99;63.71;52454.22;5075104;28;20293;-71
2023/02/26 10:37:34;;;;;;;;;;;;;;;-144.99;64.27;52476.63;5081391;28;19947;-70
2023/02/26 10:40:08;;;;;;;;;;;;;;;-144.99;65.20;52497.00;5074546;28;19931;-71
2023/02/26 10:42:38;;;;;;;;;;;;;;;-144.99;66.59;52488.84;5070620;28;19935;-75
2023/02/26 10:45:11;;;;;;;;;;;;;;;-144.99;66.15;52492.94;5081425;28;19929;-78
2023/02/26 10:47:40;;;;;;;;;;;;;;;-144.99;66.43;52492.94;5091497;28;19924;-78
2023/02/26 10:50:10;;;;;;;;;;;;;;;-144.99;66.46;52521.47;5079402;28;19989;-78
2023/02/26 10:52:37;;;;;;;;;;;;;;;-144.99;66.79;52497.00;5078587;28;19959;-78
2023/02/26 10:55:18;;;;;;;;;;;;;;;-144.99;67.43;52472.56;5075088;28;19938;-77
2023/02/26 10:57:50;;;;;;;;;;;;;;;-144.99;67.57;52545.94;5066235;28;20399;-78
2023/02/26 11:00:18;;;;;;;;;;;;;;;-144.99;68.20;52554.09;5074287;28;19945;-78
2023/02/26 11:02:46;;;;;;;;;;;;;;;-144.99;68.07;52513.31;5085406;28;19936;-78
2023/02/26 11:05:15;;;;;;;;;;;;;;;-144.99;68.97;52503.13;5082826;28;19957;-78
2023/02/26 11:07:42;;;;;;;;;;;;;;;-144.99;69.07;52550.00;5071667;28;19926;-78
2023/02/26 11:10:14;;;;;;;;;;;;;;;-144.99;69.18;52525.56;5073597;28;19963;-78
2023/02/26 11:12:40;;;;;;;;;;;;;;;-144.99;69.27;52513.31;5080728;28;20380;-78
2023/02/26 11:15:13;;;;;;;;;;;;;;;-144.99;69.30;52476.63;5072465;28;19999;-79
2023/02/26 11:17:39;;;;;;;;;;;;;;;-144.99;69.58;52543.91;5072899;28;20330;-80
2023/02/26 11:20:17;;;;;;;;;;;;;;;-144.99;69.28;52529.63;5071604;28;19959;-78
2023/02/26 11:22:45;;;;;;;;;;;;;;;-144.99;69.77;52505.16;5068268;28;19972;-78
2023/02/26 11:25:13;;;;;;;;;;;;;;;-144.99;70.37;52529.63;5067913;28;20437;-78
2023/02/26 11:27:40;;;;;;;;;;;;;;;-144.99;69.78;52537.78;5068844;28;20442;-78
2023/02/26 11:30:15;;;;;;;;;;;;;;;-144.99;69.46;52531.66;5067189;28;19939;-78
2023/02/26 11:32:44;;;;;;;;;;;;;;;-144.99;68.76;52517.41;5079101;28;19988;-78
2023/02/26 11:35:13;;;;;;;;;;;;;;;-144.99;69.36;52537.78;5067336;28;22544;-78
2023/02/26 11:37:41;;;;;;;;;;;;;;;-144.99;70.01;52505.16;5067163;28;19966;-77
2023/02/26 11:40:14;;;;;;;;;;;;;;;-144.99;70.23;52533.69;5065614;28;19982;-78
2023/02/26 11:42:43;;;;;;;;;;;;;;;-144.99;70.39;52497.00;5076470;28;20296;-77
2023/02/26 11:45:14;;;;;;;;;;;;;;;-144.99;69.94;52505.16;5069880;28;19932;-77
2023/02/26 11:47:41;;;;;;;;;;;;;;;-144.99;70.01;52570.38;5067906;28;19965;-77
2023/02/26 11:50:14;;;;;;;;;;;;;;;-144.99;70.44;52509.25;5073423;28;22067;-77
2023/02/26 11:52:41;;;;;;;;;;;;;;;-144.99;70.73;52505.16;5072534;28;20394;-78
2023/02/26 11:55:18;;;;;;;;;;;;;;;-144.99;69.99;52547.97;5072894;28;19955;-77
2023/02/26 11:57:44;;;;;;;;;;;;;;;-144.99;70.28;52505.16;5078950;28;20016;-77
2023/02/26 12:00:17;;;;;;;;;;;;;;;-144.99;69.84;52291.16;5072895;28;19964;-77
2023/02/26 12:02:44;;;;;;;;;;;;;;;-144.99;68.36;52517.41;5072537;28;19941;-77
2023/02/26 12:05:15;;;;;;;;;;;;;;;-144.99;67.49;52462.34;5059111;28;19960;-78
2023/02/26 12:07:42;;;;;;;;;;;;;;;-144.99;66.68;52268.72;5054564;28;19950;-78
2023/02/26 12:10:13;;;;;;;;;;;;;;;-144.99;65.18;52419.56;5064325;28;19941;-78
2023/02/26 12:12:49;;;;;;;;;;;;;;;-144.99;64.71;52480.72;5057096;28;19924;-78
2023/02/26 12:15:27;;;;;;;;;;;;;;;-144.99;65.58;52492.94;5060376;28;20008;-78
2023/02/26 12:18:17;;;;;;;;;;;;;;;-144.99;66.59;52472.56;5059250;28;19945;-78
2023/02/26 12:20:52;;;;;;;;;;;;;;;-144.99;67.50;52427.72;5045113;28;20014;-78
2023/02/26 12:23:26;;;;;;;;;;;;;;;-144.99;68.88;52488.84;5052452;28;19991;-78
2023/02/26 12:26:03;;;;;;;;;;;;;;;-144.99;69.34;52501.09;5056787;28;19944;-78
2023/02/26 12:28:40;;;;;;;;;;;;;;;-144.99;69.15;52497.00;5051940;28;19998;-77
2023/02/26 12:31:15;;;;;;;;;;;;;;;-144.99;68.96;52468.47;5056527;28;19942;-78